Rodney, Iowa
Current Conditions -  °F | °C
As of 8:52 AM on Wednesday 22 Oct 2014 (Local Time) from KSUX Reporting Station
Clear Clear  
Wind Chill: 55°   Ceiling: Unl
Heat Index: 55°   Visibility: 10mi
Dew Point: 45°   Wind: 12mph
Humidity: 69%   Direction: 160°SSE
Pressure: 30.06"   Gusts: NA
Location:  42.21°N, 95.95°W
Report Text: KSUX 221352Z 16010KT 10SM CLR 13/07 A3006 RMK AO2 SLP179 T01280072
Loading
Personal Weather Stations






























Interactive Weather Map
Tropical Storm Tracking
New forecast layout! Learn more

10-Day Weather Forecast

Advertisements
Track Severe Weather on mobile